createdAt,value
2022-11-12T00:02:59.095Z,7.93
2022-11-12T00:07:00.587Z,7.77
2022-11-12T00:11:01.676Z,8.13
2022-11-12T00:15:03.223Z,7.63
2022-11-12T00:19:04.396Z,5.93
2022-11-12T00:23:05.586Z,6.50
2022-11-12T00:27:06.771Z,5.83
2022-11-12T00:31:10.073Z,6.63
2022-11-12T00:35:13.870Z,6.40
2022-11-12T00:39:14.509Z,7.33
2022-11-12T00:43:15.583Z,6.70
2022-11-12T00:47:16.657Z,7.03
2022-11-12T00:51:17.916Z,5.00
2022-11-12T00:55:18.983Z,9.53
2022-11-12T00:59:20.166Z,5.50
2022-11-12T01:03:21.619Z,6.07
2022-11-12T01:07:23.069Z,6.47
2022-11-12T01:11:27.480Z,4.83
2022-11-12T01:15:28.680Z,7.53
2022-11-12T01:19:29.825Z,8.53
2022-11-12T01:23:36.605Z,5.63
2022-11-12T01:27:37.833Z,6.27
2022-11-12T01:31:38.997Z,12.77
2022-11-12T01:35:40.078Z,9.57
2022-11-12T01:39:41.147Z,9.67
2022-11-12T01:43:42.299Z,9.83
2022-11-12T01:47:45.081Z,9.20
2022-11-12T01:51:48.643Z,12.27
2022-11-12T01:55:50.849Z,11.10
2022-11-12T01:59:55.716Z,10.73
2022-11-12T02:03:56.867Z,15.67
2022-11-12T02:08:00.035Z,16.83
2022-11-12T02:12:03.105Z,8.23
2022-11-12T02:16:06.775Z,9.30
2022-11-12T02:20:12.514Z,12.57
2022-11-12T02:24:17.400Z,7.40
2022-11-12T02:28:18.858Z,11.60
2022-11-12T02:32:19.935Z,6.30
2022-11-12T02:36:21.585Z,7.90
2022-11-12T02:40:22.976Z,12.00
2022-11-12T02:44:24.141Z,7.80
2022-11-12T02:48:25.362Z,11.50
2022-11-12T02:52:26.669Z,13.57
2022-11-12T02:56:27.807Z,7.00
2022-11-12T03:00:28.986Z,9.20
2022-11-12T03:04:30.083Z,4.47
2022-11-12T03:08:31.291Z,5.13
2022-11-12T03:12:32.547Z,4.60
2022-11-12T03:16:33.609Z,4.80
2022-11-12T03:20:34.776Z,5.93
2022-11-12T03:24:35.954Z,5.47
2022-11-12T03:28:37.231Z,5.50
2022-11-12T03:32:38.367Z,5.60
2022-11-12T03:36:39.444Z,5.53
2022-11-12T03:40:40.516Z,6.53
2022-11-12T03:44:41.691Z,6.80
2022-11-12T03:48:42.825Z,10.43
2022-11-12T03:52:45.732Z,6.93
2022-11-12T03:56:46.918Z,14.30
2022-11-12T04:00:48.149Z,6.50
2022-11-12T04:05:07.697Z,7.77
2022-11-12T04:09:08.768Z,12.90
2022-11-12T04:13:27.983Z,12.67
2022-11-12T04:17:47.807Z,15.90
2022-11-12T04:21:54.840Z,14.50
2022-11-12T04:26:14.619Z,9.03
2022-11-12T04:30:15.826Z,10.83
2022-11-12T04:34:29.012Z,10.20
2022-11-12T04:38:30.148Z,11.10
2022-11-12T04:42:49.833Z,10.00
2022-11-12T04:46:50.995Z,10.47
2022-11-12T04:50:58.279Z,9.20
2022-11-12T04:55:00.072Z,14.40
2022-11-12T04:59:01.314Z,10.50
2022-11-12T05:03:02.455Z,9.70
2022-11-12T05:07:03.652Z,16.97
2022-11-12T05:11:07.563Z,12.30
2022-11-12T05:15:09.410Z,10.63
2022-11-12T05:19:10.687Z,20.20
2022-11-12T05:23:11.992Z,11.77
2022-11-12T05:27:15.919Z,15.93
2022-11-12T05:31:17.216Z,11.37
2022-11-12T05:35:18.490Z,10.27
2022-11-12T05:39:19.898Z,20.50
2022-11-12T05:43:21.143Z,12.07
2022-11-12T05:47:22.436Z,13.07
2022-11-12T05:51:23.725Z,14.70
2022-11-12T05:55:25.115Z,14.20
2022-11-12T05:59:26.415Z,12.40
2022-11-12T06:03:28.453Z,20.77
2022-11-12T06:07:29.878Z,13.97
2022-11-12T06:11:31.370Z,16.67
2022-11-12T06:15:37.980Z,15.27
2022-11-12T06:19:35.985Z,15.10
2022-11-12T06:23:37.383Z,15.53
2022-11-12T06:27:38.958Z,18.77
2022-11-12T06:31:40.263Z,25.27
2022-11-12T06:35:43.137Z,17.13
2022-11-12T06:39:44.746Z,13.50
2022-11-12T06:43:46.068Z,18.43
2022-11-12T06:47:47.510Z,21.53
2022-11-12T06:51:51.974Z,20.60
2022-11-12T06:55:57.086Z,17.50
2022-11-12T06:59:58.355Z,15.20
2022-11-12T07:03:59.729Z,18.10
2022-11-12T07:08:01.032Z,16.10
2022-11-12T07:12:02.355Z,17.70
2022-11-12T07:16:06.051Z,15.33
2022-11-12T07:20:08.817Z,17.10
2022-11-12T07:24:10.405Z,17.23
2022-11-12T07:28:11.680Z,18.50
2022-11-12T07:32:12.972Z,17.90
2022-11-12T07:36:16.717Z,17.63
2022-11-12T07:40:18.055Z,16.40
2022-11-12T07:44:19.381Z,18.50
2022-11-12T07:48:20.694Z,17.03
2022-11-12T07:52:23.088Z,16.17
2022-11-12T07:56:25.776Z,13.40
2022-11-12T08:00:27.104Z,13.80
2022-11-12T08:04:28.651Z,14.60
2022-11-12T08:08:30.215Z,14.70
2022-11-12T08:12:31.571Z,12.80
2022-11-12T08:16:33.394Z,14.10
2022-11-12T08:20:34.650Z,13.33
2022-11-12T08:24:36.012Z,12.83
2022-11-12T08:28:37.923Z,14.07
2022-11-12T08:32:39.357Z,12.77
2022-11-12T08:36:40.732Z,14.07
2022-11-12T08:40:42.110Z,12.07
2022-11-12T08:44:43.452Z,14.57
2022-11-12T08:48:44.809Z,13.20
2022-11-12T08:52:46.137Z,12.97
2022-11-12T08:56:47.518Z,13.87
2022-11-12T09:00:50.316Z,12.77
2022-11-12T09:04:51.710Z,14.60
2022-11-12T09:08:52.996Z,14.60
2022-11-12T09:12:54.556Z,16.43
2022-11-12T09:16:55.993Z,16.60
2022-11-12T09:21:03.766Z,15.40
2022-11-12T09:25:05.929Z,15.53
2022-11-12T09:29:07.245Z,13.13
2022-11-12T09:33:08.851Z,15.03
2022-11-12T09:37:10.164Z,17.40
2022-11-12T09:41:21.440Z,17.93
2022-11-12T09:45:29.470Z,14.70
2022-11-12T09:49:47.540Z,15.47
2022-11-12T09:54:08.045Z,16.13
2022-11-12T09:58:12.058Z,15.53
2022-11-12T10:02:32.651Z,16.37
2022-11-12T10:06:37.923Z,15.80
2022-11-12T10:10:51.577Z,15.50
2022-11-12T10:15:27.206Z,15.57
2022-11-12T10:19:44.547Z,16.27
2022-11-12T10:23:48.404Z,17.10
2022-11-12T10:27:50.465Z,16.67
2022-11-12T10:31:51.835Z,15.30
2022-11-12T10:35:53.319Z,15.00
2022-11-12T10:39:54.572Z,14.33
2022-11-12T10:43:59.422Z,16.47
2022-11-12T10:48:01.236Z,16.13
2022-11-12T10:52:02.625Z,15.70
2022-11-12T10:56:07.212Z,16.83
2022-11-12T11:00:18.431Z,16.60
2022-11-12T11:04:26.652Z,15.30
2022-11-12T11:08:36.100Z,16.80
2022-11-12T11:12:37.506Z,16.60
2022-11-12T11:16:51.325Z,15.50
2022-11-12T11:21:05.153Z,15.73
2022-11-12T11:25:22.687Z,17.03
2022-11-12T11:29:30.865Z,15.67
2022-11-12T11:33:39.108Z,18.50
2022-11-12T11:38:07.243Z,18.53
2022-11-12T11:42:24.561Z,15.27
2022-11-12T11:46:41.841Z,16.20
2022-11-12T11:51:04.872Z,18.93
2022-11-12T11:55:19.089Z,19.03
2022-11-12T11:59:58.002Z,18.20
2022-11-12T12:04:03.112Z,20.33
2022-11-12T12:08:14.296Z,18.40
2022-11-12T12:12:25.870Z,18.87
2022-11-12T12:16:37.032Z,18.73
2022-11-12T12:20:45.134Z,16.97
2022-11-12T12:24:56.356Z,20.03
2022-11-12T12:29:25.928Z,20.40
2022-11-12T12:33:47.810Z,21.67
2022-11-12T12:38:12.777Z,20.90
2022-11-12T12:42:23.935Z,19.63
2022-11-12T12:46:28.571Z,19.67
2022-11-12T12:50:30.604Z,20.80
2022-11-12T12:54:38.738Z,20.37
2022-11-12T12:58:44.064Z,19.40
2022-11-12T13:02:45.544Z,19.97
2022-11-12T13:06:50.766Z,19.17
2022-11-12T13:10:52.197Z,21.40
2022-11-12T13:15:09.735Z,21.67
2022-11-12T13:19:14.834Z,23.90
2022-11-12T13:23:20.240Z,24.27
2022-11-12T13:27:46.843Z,22.13
2022-11-12T13:31:48.562Z,22.10
2022-11-12T13:35:49.998Z,22.17
2022-11-12T13:39:51.730Z,23.63
2022-11-12T13:43:53.374Z,24.83
2022-11-12T13:47:56.755Z,25.23
2022-11-12T13:52:00.120Z,24.20
2022-11-12T13:56:01.837Z,25.10
2022-11-12T14:00:21.067Z,23.93
2022-11-12T14:04:23.891Z,23.53
2022-11-12T14:08:35.040Z,27.30
2022-11-12T14:12:43.164Z,27.10
2022-11-12T14:16:48.276Z,21.60
2022-11-12T14:20:49.619Z,26.20
2022-11-12T14:24:54.725Z,25.57
2022-11-12T14:28:56.932Z,28.37
2022-11-12T14:33:02.229Z,28.50
2022-11-12T14:37:03.629Z,26.57
2022-11-12T14:41:10.706Z,22.73
2022-11-12T14:45:20.464Z,25.87
2022-11-12T14:49:33.466Z,28.37
2022-11-12T14:53:53.878Z,27.57
2022-11-12T14:57:57.678Z,26.43
2022-11-12T15:02:31.661Z,27.00
2022-11-12T15:06:10.866Z,26.60
2022-11-12T15:10:37.255Z,26.53
2022-11-12T15:14:38.655Z,25.37
2022-11-12T15:18:40.027Z,29.13
2022-11-12T15:22:50.488Z,31.93
2022-11-12T15:26:53.287Z,30.10
2022-11-12T15:31:10.517Z,28.17
2022-11-12T15:35:30.927Z,24.50
2022-11-12T15:39:35.936Z,25.03
2022-11-12T15:43:39.296Z,28.00
2022-11-12T15:47:40.841Z,26.77
2022-11-12T15:51:42.395Z,29.30
2022-11-12T15:55:45.037Z,36.30
2022-11-12T15:59:52.737Z,29.70
2022-11-12T16:03:54.155Z,30.80
2022-11-12T16:07:55.631Z,30.07
2022-11-12T16:11:58.485Z,27.30
2022-11-12T16:16:03.033Z,32.30
2022-11-12T16:20:23.235Z,33.37
2022-11-12T16:24:24.780Z,30.83
2022-11-12T16:28:26.173Z,30.07
2022-11-12T16:32:27.473Z,31.77
2022-11-12T16:36:29.138Z,32.07
2022-11-12T16:40:30.885Z,32.83
2022-11-12T16:44:32.191Z,39.57
2022-11-12T16:48:33.705Z,30.10
2022-11-12T16:52:34.995Z,29.80
2022-11-12T16:56:36.747Z,29.17
2022-11-12T17:00:38.401Z,28.90
2022-11-12T17:04:39.690Z,29.33
2022-11-12T17:08:41.380Z,31.40
2022-11-12T17:12:45.093Z,37.63
2022-11-12T17:16:46.453Z,24.60
2022-11-12T17:20:51.174Z,25.43
2022-11-12T17:24:50.872Z,23.90
2022-11-12T17:28:59.240Z,27.20
2022-11-12T17:32:55.409Z,33.07
2022-11-12T17:36:56.762Z,32.10
2022-11-12T17:40:58.245Z,25.07
2022-11-12T17:44:59.660Z,26.27
2022-11-12T17:49:01.498Z,26.90
2022-11-12T17:53:02.963Z,24.77
2022-11-12T17:57:04.490Z,20.43
2022-11-12T18:01:15.189Z,22.53
2022-11-12T18:05:16.477Z,24.17
2022-11-12T18:09:17.790Z,24.13
2022-11-12T18:13:19.392Z,21.10
2022-11-12T18:17:20.691Z,22.20
2022-11-12T18:21:24.171Z,22.17
2022-11-12T18:25:26.250Z,21.43
2022-11-12T18:29:27.592Z,20.53
2022-11-12T18:33:29.895Z,20.17
2022-11-12T18:37:31.479Z,23.00
2022-11-12T18:41:33.491Z,18.30
2022-11-12T18:45:34.874Z,19.53
2022-11-12T18:49:36.333Z,23.10
2022-11-12T18:53:39.447Z,19.63
2022-11-12T18:57:40.822Z,15.53
2022-11-12T19:01:42.181Z,21.60
2022-11-12T19:05:43.632Z,19.83
2022-11-12T19:09:44.993Z,18.37
2022-11-12T19:13:51.878Z,18.27
2022-11-12T19:17:53.174Z,23.77
2022-11-12T19:21:54.558Z,29.00
2022-11-12T19:25:56.200Z,23.03
2022-11-12T19:30:02.592Z,20.53
2022-11-12T19:34:01.410Z,24.10
2022-11-12T19:38:02.797Z,21.40
2022-11-12T19:42:06.787Z,23.50
2022-11-12T19:46:09.439Z,22.53
2022-11-12T19:50:10.833Z,26.63
2022-11-12T19:54:12.142Z,19.30
2022-11-12T19:58:13.494Z,23.60
2022-11-12T20:02:14.850Z,22.63
2022-11-12T20:06:19.386Z,27.30
2022-11-12T20:10:21.118Z,22.83
2022-11-12T20:14:22.492Z,29.20
2022-11-12T20:18:25.319Z,28.27
2022-11-12T20:22:32.205Z,28.07
2022-11-12T20:26:33.111Z,24.43
2022-11-12T20:30:34.513Z,21.60
2022-11-12T20:34:35.970Z,20.63
2022-11-12T20:38:39.665Z,26.93
2022-11-12T20:42:41.112Z,22.60
2022-11-12T20:46:42.406Z,21.33
2022-11-12T20:51:02.331Z,23.20
2022-11-12T20:54:46.857Z,24.87
2022-11-12T20:58:49.095Z,15.43
2022-11-12T21:02:50.642Z,14.80
2022-11-12T21:06:52.269Z,15.03
2022-11-12T21:10:54.098Z,12.47
2022-11-12T21:14:55.569Z,19.87
2022-11-12T21:18:59.423Z,18.80
2022-11-12T21:23:01.212Z,17.00
2022-11-12T21:27:02.538Z,20.10
2022-11-12T21:31:06.033Z,15.00
2022-11-12T21:35:07.788Z,16.97
2022-11-12T21:39:11.180Z,16.30
2022-11-12T21:43:12.664Z,16.80
2022-11-12T21:47:14.813Z,18.37
2022-11-12T21:51:16.207Z,12.80
2022-11-12T21:55:17.611Z,19.03
2022-11-12T21:59:18.983Z,13.27
2022-11-12T22:03:20.583Z,20.27
2022-11-12T22:07:21.927Z,16.90
2022-11-12T22:11:24.495Z,13.83
2022-11-12T22:15:25.926Z,21.47
2022-11-12T22:19:27.305Z,14.00
2022-11-12T22:23:28.820Z,14.70
2022-11-12T22:27:32.121Z,19.43
2022-11-12T22:31:33.570Z,17.20
2022-11-12T22:35:35.125Z,20.10
2022-11-12T22:39:36.402Z,24.63
2022-11-12T22:43:38.091Z,26.70
2022-11-12T22:47:39.411Z,22.50
2022-11-12T22:51:41.063Z,19.97
2022-11-12T22:55:42.408Z,19.80
2022-11-12T22:59:43.807Z,23.07
2022-11-12T23:03:45.322Z,26.07
2022-11-12T23:07:46.694Z,21.30
2022-11-12T23:11:48.099Z,16.70
2022-11-12T23:15:49.518Z,20.30
2022-11-12T23:19:50.904Z,16.47
2022-11-12T23:23:52.853Z,14.93
2022-11-12T23:27:54.152Z,14.33
2022-11-12T23:31:55.528Z,20.50
2022-11-12T23:36:05.649Z,20.47
2022-11-12T23:40:08.832Z,15.17
2022-11-12T23:44:10.140Z,19.57
2022-11-12T23:48:11.539Z,20.80
2022-11-12T23:52:12.996Z,14.43
2022-11-12T23:56:16.355Z,12.63
